Yarmouth Port, MA

19:50 EDT le 02 septembre 2014 (GMT -0400)
Cape Cod Coast Guard Air Station | Change Station
CLOSE
Current Station
Aéroport
Location: Cape Cod CGAS,
Altitude: 131 ft
Stations météo à proximité

Alt. 131 ft 41.66 °N, 70.52 °W | Updated 15 minutes ago

Clear
Ciel dégagé
75 ° F
Paraît 75 ° F
N
10
Vent Variable Vent de SSO

Aujourd'hui
Haut(e) -- | Bas -- ° F
--% Risque de précip.
Hier
Haut(e) -- | Bas -- ° F
Precip. -- pouce
6:07 AM 7:12 PM
Premier quartier, 56% visible
Pression 29.83 pouce
Visibilité 10.0 Miles terrestres
Nuages Ciel dégagé
Point de rosée 72 ° F
Humidité 89%
Précipitations 0.00 pouce
Profondeur de la couche neigeuse Non disponible.
UV 0 sur 12
Pollen 8.20 sur 12
Qualité de l'air Non disponible.
Flu Activity Non disponible.
METAR KFMH 022335Z AUTO 20009KT 10SM CLR 24/22 A2983 RMK AO2

More Conditions Fewer Conditions

Pression 29.83 pouce
Visibilité 10.0 Miles terrestres
Nuages Ciel dégagé
Point de rosée 72 ° F
Humidité 89%
Précipitations 0.00 pouce
Profondeur de la couche neigeuse Non disponible.
UV 0 sur 12
Pollen 8.20 sur 12
Qualité de l'air Non disponible.
Flu Activity Non disponible.
METAR KFMH 022335Z AUTO 20009KT 10SM CLR 24/22 A2983 RMK AO2

More Conditions Fewer Conditions

10-Day Weather Forecast

Almanac

Astronomie

Sep. 02, 2014 Lever Coucher
Temps réel 06:07 EDT 19:12 EDT
Crépuscule civil 05:39 EDT 19:41 EDT
Crépuscule nautique 05:05 EDT 20:14 EDT
Crépuscule astronomique 04:29 EDT 20:50 EDT
Lune 13:54 EDT 23:57 EDT
Durée de lumière visible 14h 01m
Longueur du jour
13h 04m
Tomorrow will be 2m 42s shorter.
Premier quartier, 56% of the Moon is Illuminated
Aujourd'hui
Premier quartier
Sep 8
Pleine lune
Sep 15
Dernier quartier
Sep 24
Nouveau
Oct 1
Premier quartier

Extrêmes aujourd'hui

State Highs State Lows

Community

WunderPhotos

Upload Photos

1,749,799 Photos téléchargées !

Nearby

Qualité de l'air

  Qualité de l'air Indice de la qualité de l'air Polluant
Hier Bon
OZONE
mardi Bon
PM2.5
mardi Bon
OZONE
mercredi Bon
PM2.5
mercredi Bon
OZONE

Épaisseur de neige

Station Depth Altitude
Pas de nouvelles chutes de neige

Activité sismique

Ville Distance Mag. Time & Date
No recent earthquake activity has been reported nearby.
Minimum magnitude displayed is 2.5.

Températures des eaux côtières

Lieu Température
Woods Hole, MA 72.0 ° F
Nantucket Island, MA 73.0 ° F
Boston, MA 66.9 ° F
Fall River, MA 75.9 ° F

Stations météo à proximité